Aérodrome :
LOGIN :

S'inscrire | Disclaimer

   EN    FR    IT 

 










Légende :    VFR   VFR Marginal   IFR   IFR Intensif   IFR Très Intensif
Visi : 
Plafond : 
>= 8 km
>= 3000ft
5 à 8 km
1000 à 3000 ft
1500m à 5 km
500 à 1000 ft
800 à 1500m
200 à 500 ft
< 800m
< 200 ft
Symboles :   Orages  Brouillard  Fortes neiges  Fortes précipitations  Vent > 20 kt
SIGMETs :   Divers  Orages  Givrage  Turbulence  Onde Orograph.  Cendres Volcan.






- Altitude de l'aérodrome : 124 ft
- Code IATA : NHT


EGWU - RAF Northolt

DERNIER METAR :
  • 060250Z AUTO 18007KT 9999 // BKN090/// 13/07 Q1010

METARs EXPIRÉS :
  • 060150Z AUTO 18007KT 9999 // NCD 13/06 Q1010
  • 060050Z AUTO 18008KT 9999 // FEW090/// 14/05 Q1010

TAF AMD TAF EGWU
Valide du 05 à 18h jusqu'au 06 à 12h UTC


051816Z 0518/0612 17012KT CAVOK
BECMG 0602/0605 BKN012
PROB40
TEMPO 0604/0607 7000 RA
PROB30
TEMPO 0605/0608 SCT006 BKN010
BECMG 0608/0611 SCT030



MET'MAP, la Météo Aéronautique d'un coup d'oeil ! - Copyright ORBIFLY Décembre 2007 - Disclaimer

ORBIFLY MET'MAP TEAM :

Programmation & Développement : Alexandra Zaïnal
Sur une idée originale de : Baudouin d'Aumeries
Assistance à la programmation : Marc-Olivier Méhu
Soutien technique & logistique : Manuel Goepfert

Contact : metmap@orbifly.com




SOURCES & CREDITS :

   NOAA